TAF and METAR

METAR for Sadiq Abubakar III International Airport

DNSO 011300Z 15006KT CAVOK 42/15 Q1009
Report created 1. apr 15:00
wind 6 knots from SSE (150°) Clear sky Temperature 42° with dewpoint at 15° (Humidity 20.84%) Pressure 1009 hPa

TAF for Sadiq Abubakar III International Airport

TAF DNSO 011100Z 0112/0218 05008KT CAVOK
Report created 1. apr 13:00

between 1. apr 14:00 - 2. apr 20:00

wind 8 knots from NE (050°) Clear sky